Main page
METAR-TAF:

METAR-TAF

Airports :

Winter Haven's Gilbert Airport

Winter Haven, Florida, United States

latitude: 28-03-38N, longitude: 081-45-27W, elevation: 144 ft

Current weather observation

The report was made 13 minutes ago, at 09:53 UTC
Wind 7 mph from the North/Northeast
Temperature 75°F
Humidity 74%
Pressure 29.96 in. Hg
Visibility: 10 miles
Scattered clouds at a height of 3800 ft
Broken clouds at a height of 5000 ft
Overcast at a height of 6000 ft

METAR: KGIF 240953Z AUTO 03006KT 10SM SCT038 BKN050 OVC060 24/19 A2996 RMK AO2 SLP141 T02440189

Time: 06:06 (10:06 UTC)


TAF: missing

Weather observations and forecasts of more than 4000 airports (METAR and TAF reports).

The available stations are represented by yellow and red dots on the map.

Hover mouse over dot to see the name of the station.

Then click to see weather observations and forecasts.

To change the map : click on the green buttons with a black cross to zoom in, on the green button with a dash to zoom out, or on the green arrows for adjacent maps.


METAR-TAF: